sensor_id;sensor_type;location;lat;lon;timestamp;temperature;humidity
666;DHT22;315;48.738;9.126;2024-03-25T00:02:13;5.10;99.90
666;DHT22;315;48.738;9.126;2024-03-25T00:04:38;5.10;99.90
666;DHT22;315;48.738;9.126;2024-03-25T00:07:04;5.00;99.90
666;DHT22;315;48.738;9.126;2024-03-25T00:09:30;5.00;99.90
666;DHT22;315;48.738;9.126;2024-03-25T00:11:55;5.00;99.90
666;DHT22;315;48.738;9.126;2024-03-25T00:14:21;4.90;99.90
666;DHT22;315;48.738;9.126;2024-03-25T00:16:47;4.90;99.90
666;DHT22;315;48.738;9.126;2024-03-25T00:19:13;4.90;99.90
666;DHT22;315;48.738;9.126;2024-03-25T00:21:38;4.90;99.90
666;DHT22;315;48.738;9.126;2024-03-25T00:24:04;4.80;99.90
666;DHT22;315;48.738;9.126;2024-03-25T00:26:29;4.80;99.90
666;DHT22;315;48.738;9.126;2024-03-25T00:28:55;4.80;99.90
666;DHT22;315;48.738;9.126;2024-03-25T00:31:20;4.70;99.90
666;DHT22;315;48.738;9.126;2024-03-25T00:33:46;4.70;99.90
666;DHT22;315;48.738;9.126;2024-03-25T00:36:12;4.70;99.90
666;DHT22;315;48.738;9.126;2024-03-25T00:38:38;4.70;99.90
666;DHT22;315;48.738;9.126;2024-03-25T00:41:03;4.70;99.90
666;DHT22;315;48.738;9.126;2024-03-25T00:43:29;4.60;99.90
666;DHT22;315;48.738;9.126;2024-03-25T00:45:55;4.60;99.90
666;DHT22;315;48.738;9.126;2024-03-25T00:48:22;4.60;99.90
666;DHT22;315;48.738;9.126;2024-03-25T00:50:48;4.60;99.90
666;DHT22;315;48.738;9.126;2024-03-25T00:53:13;4.50;99.90
666;DHT22;315;48.738;9.126;2024-03-25T00:55:39;4.50;99.90
666;DHT22;315;48.738;9.126;2024-03-25T00:58:05;4.50;99.90
666;DHT22;315;48.738;9.126;2024-03-25T01:00:30;4.50;99.90
666;DHT22;315;48.738;9.126;2024-03-25T01:02:56;4.50;99.90
666;DHT22;315;48.738;9.126;2024-03-25T01:05:22;4.50;99.90
666;DHT22;315;48.738;9.126;2024-03-25T01:07:47;4.50;99.90
666;DHT22;315;48.738;9.126;2024-03-25T01:10:14;4.50;99.90
666;DHT22;315;48.738;9.126;2024-03-25T01:12:40;4.40;99.90
666;DHT22;315;48.738;9.126;2024-03-25T01:15:06;4.40;99.90
666;DHT22;315;48.738;9.126;2024-03-25T01:17:32;4.40;99.90
666;DHT22;315;48.738;9.126;2024-03-25T01:19:58;4.30;99.90
666;DHT22;315;48.738;9.126;2024-03-25T01:22:23;4.30;99.90
666;DHT22;315;48.738;9.126;2024-03-25T01:24:49;4.30;99.90
666;DHT22;315;48.738;9.126;2024-03-25T01:27:14;4.30;99.90
666;DHT22;315;48.738;9.126;2024-03-25T01:29:40;4.20;99.90
666;DHT22;315;48.738;9.126;2024-03-25T01:32:06;4.20;99.90
666;DHT22;315;48.738;9.126;2024-03-25T01:34:32;4.20;99.90
666;DHT22;315;48.738;9.126;2024-03-25T01:36:57;4.10;99.90
666;DHT22;315;48.738;9.126;2024-03-25T01:39:23;4.10;99.90
666;DHT22;315;48.738;9.126;2024-03-25T01:41:50;4.10;99.90
666;DHT22;315;48.738;9.126;2024-03-25T01:44:15;4.10;99.90
666;DHT22;315;48.738;9.126;2024-03-25T01:46:41;4.10;99.90
666;DHT22;315;48.738;9.126;2024-03-25T01:49:08;4.10;99.90
666;DHT22;315;48.738;9.126;2024-03-25T01:51:34;4.10;99.90
666;DHT22;315;48.738;9.126;2024-03-25T01:54:01;4.10;99.90
666;DHT22;315;48.738;9.126;2024-03-25T01:56:27;4.20;99.90
666;DHT22;315;48.738;9.126;2024-03-25T01:58:55;4.20;99.90
666;DHT22;315;48.738;9.126;2024-03-25T02:01:21;4.20;99.90
666;DHT22;315;48.738;9.126;2024-03-25T02:03:47;4.30;99.90
666;DHT22;315;48.738;9.126;2024-03-25T02:06:15;4.30;99.90
666;DHT22;315;48.738;9.126;2024-03-25T02:08:41;4.30;99.90
666;DHT22;315;48.738;9.126;2024-03-25T02:11:08;4.40;99.90
666;DHT22;315;48.738;9.126;2024-03-25T02:13:35;4.40;99.90
666;DHT22;315;48.738;9.126;2024-03-25T02:16:00;4.50;99.90
666;DHT22;315;48.738;9.126;2024-03-25T02:18:26;4.50;99.90
666;DHT22;315;48.738;9.126;2024-03-25T02:20:51;4.50;99.90
666;DHT22;315;48.738;9.126;2024-03-25T02:23:19;4.50;99.90
666;DHT22;315;48.738;9.126;2024-03-25T02:25:49;4.50;99.90
666;DHT22;315;48.738;9.126;2024-03-25T02:28:15;4.60;99.90
666;DHT22;315;48.738;9.126;2024-03-25T02:30:41;4.60;99.90
666;DHT22;315;48.738;9.126;2024-03-25T02:33:06;4.60;99.90
666;DHT22;315;48.738;9.126;2024-03-25T02:35:32;4.60;99.90
666;DHT22;315;48.738;9.126;2024-03-25T02:37:58;4.50;99.90
666;DHT22;315;48.738;9.126;2024-03-25T02:40:23;4.60;99.90
666;DHT22;315;48.738;9.126;2024-03-25T02:42:50;4.60;99.90
666;DHT22;315;48.738;9.126;2024-03-25T02:45:15;4.70;99.90
666;DHT22;315;48.738;9.126;2024-03-25T02:47:43;4.70;99.90
666;DHT22;315;48.738;9.126;2024-03-25T02:50:09;4.60;99.90
666;DHT22;315;48.738;9.126;2024-03-25T02:52:34;4.60;99.90
666;DHT22;315;48.738;9.126;2024-03-25T02:55:00;4.70;99.90
666;DHT22;315;48.738;9.126;2024-03-25T02:57:25;4.60;99.90
666;DHT22;315;48.738;9.126;2024-03-25T02:59:51;4.60;99.90
666;DHT22;315;48.738;9.126;2024-03-25T03:02:17;4.70;99.90
666;DHT22;315;48.738;9.126;2024-03-25T03:04:42;4.70;99.90
666;DHT22;315;48.738;9.126;2024-03-25T03:07:08;4.70;99.90
666;DHT22;315;48.738;9.126;2024-03-25T03:09:33;4.60;99.90
666;DHT22;315;48.738;9.126;2024-03-25T03:11:59;4.70;99.90
666;DHT22;315;48.738;9.126;2024-03-25T03:14:24;4.60;99.90
666;DHT22;315;48.738;9.126;2024-03-25T03:16:50;4.60;99.90
666;DHT22;315;48.738;9.126;2024-03-25T03:19:20;4.60;99.90
666;DHT22;315;48.738;9.126;2024-03-25T03:21:45;4.60;99.90
666;DHT22;315;48.738;9.126;2024-03-25T03:24:11;4.60;99.90
666;DHT22;315;48.738;9.126;2024-03-25T03:26:36;4.60;99.90
666;DHT22;315;48.738;9.126;2024-03-25T03:29:02;4.60;99.90
666;DHT22;315;48.738;9.126;2024-03-25T03:31:28;4.50;99.90
666;DHT22;315;48.738;9.126;2024-03-25T03:33:53;4.50;99.90
666;DHT22;315;48.738;9.126;2024-03-25T03:36:22;4.50;99.90
666;DHT22;315;48.738;9.126;2024-03-25T03:38:50;4.50;99.90
666;DHT22;315;48.738;9.126;2024-03-25T03:41:16;4.50;99.90
666;DHT22;315;48.738;9.126;2024-03-25T03:43:41;4.40;99.90
666;DHT22;315;48.738;9.126;2024-03-25T03:46:07;4.40;99.90
666;DHT22;315;48.738;9.126;2024-03-25T03:48:32;4.40;99.90
666;DHT22;315;48.738;9.126;2024-03-25T03:50:58;4.40;99.90
666;DHT22;315;48.738;9.126;2024-03-25T03:53:23;4.40;99.90
666;DHT22;315;48.738;9.126;2024-03-25T03:56:00;4.40;99.90
666;DHT22;315;48.738;9.126;2024-03-25T03:58:27;4.40;99.90
666;DHT22;315;48.738;9.126;2024-03-25T04:00:53;4.40;99.90
666;DHT22;315;48.738;9.126;2024-03-25T04:03:19;4.40;99.90
666;DHT22;315;48.738;9.126;2024-03-25T04:05:44;4.40;99.90
666;DHT22;315;48.738;9.126;2024-03-25T04:08:10;4.40;99.90
666;DHT22;315;48.738;9.126;2024-03-25T04:10:36;4.50;99.90
666;DHT22;315;48.738;9.126;2024-03-25T04:13:03;4.50;99.90
666;DHT22;315;48.738;9.126;2024-03-25T04:15:29;4.50;99.90
666;DHT22;315;48.738;9.126;2024-03-25T04:17:57;4.40;99.90
666;DHT22;315;48.738;9.126;2024-03-25T04:20:23;4.50;99.90
666;DHT22;315;48.738;9.126;2024-03-25T04:22:49;4.40;99.90
666;DHT22;315;48.738;9.126;2024-03-25T04:25:14;4.40;99.90
666;DHT22;315;48.738;9.126;2024-03-25T04:27:40;4.30;99.90
666;DHT22;315;48.738;9.126;2024-03-25T04:30:07;4.30;99.90
666;DHT22;315;48.738;9.126;2024-03-25T04:32:34;4.30;99.90
666;DHT22;315;48.738;9.126;2024-03-25T04:34:59;4.30;99.90
666;DHT22;315;48.738;9.126;2024-03-25T04:37:26;4.20;99.90
666;DHT22;315;48.738;9.126;2024-03-25T04:39:53;4.20;99.90
666;DHT22;315;48.738;9.126;2024-03-25T04:42:18;4.20;99.90
666;DHT22;315;48.738;9.126;2024-03-25T04:44:44;4.20;99.90
666;DHT22;315;48.738;9.126;2024-03-25T04:47:10;4.20;99.90
666;DHT22;315;48.738;9.126;2024-03-25T04:49:35;4.20;99.90
666;DHT22;315;48.738;9.126;2024-03-25T04:52:00;4.30;99.90
666;DHT22;315;48.738;9.126;2024-03-25T04:54:28;4.30;99.90
666;DHT22;315;48.738;9.126;2024-03-25T04:56:53;4.20;99.90
666;DHT22;315;48.738;9.126;2024-03-25T04:59:19;4.30;99.90
666;DHT22;315;48.738;9.126;2024-03-25T05:01:44;4.30;99.90
666;DHT22;315;48.738;9.126;2024-03-25T05:04:10;4.30;99.90
666;DHT22;315;48.738;9.126;2024-03-25T05:06:35;4.30;99.90
666;DHT22;315;48.738;9.126;2024-03-25T05:09:01;4.30;99.90
666;DHT22;315;48.738;9.126;2024-03-25T05:11:27;4.40;99.90
666;DHT22;315;48.738;9.126;2024-03-25T05:13:52;4.40;99.90
666;DHT22;315;48.738;9.126;2024-03-25T05:16:18;4.40;99.90
666;DHT22;315;48.738;9.126;2024-03-25T05:18:43;4.30;99.90
666;DHT22;315;48.738;9.126;2024-03-25T05:21:09;4.30;99.90
666;DHT22;315;48.738;9.126;2024-03-25T05:23:35;4.30;99.90
666;DHT22;315;48.738;9.126;2024-03-25T05:26:00;4.30;99.90
666;DHT22;315;48.738;9.126;2024-03-25T05:28:26;4.30;99.90
666;DHT22;315;48.738;9.126;2024-03-25T05:30:51;4.30;99.90
666;DHT22;315;48.738;9.126;2024-03-25T05:33:17;4.40;99.90
666;DHT22;315;48.738;9.126;2024-03-25T05:35:42;4.40;99.90
666;DHT22;315;48.738;9.126;2024-03-25T05:38:08;4.30;99.90
666;DHT22;315;48.738;9.126;2024-03-25T05:40:33;4.40;99.90
666;DHT22;315;48.738;9.126;2024-03-25T05:42:59;4.40;99.90
666;DHT22;315;48.738;9.126;2024-03-25T05:45:24;4.40;99.90
666;DHT22;315;48.738;9.126;2024-03-25T05:47:50;4.40;99.90
666;DHT22;315;48.738;9.126;2024-03-25T05:50:16;4.40;99.90
666;DHT22;315;48.738;9.126;2024-03-25T05:52:42;4.50;99.90
666;DHT22;315;48.738;9.126;2024-03-25T05:55:07;4.50;99.90
666;DHT22;315;48.738;9.126;2024-03-25T05:57:35;4.50;99.90
666;DHT22;315;48.738;9.126;2024-03-25T06:00:01;4.60;99.90
666;DHT22;315;48.738;9.126;2024-03-25T06:02:26;4.60;99.90
666;DHT22;315;48.738;9.126;2024-03-25T06:04:52;4.70;99.90
666;DHT22;315;48.738;9.126;2024-03-25T06:07:17;4.80;99.90
666;DHT22;315;48.738;9.126;2024-03-25T06:09:43;4.80;99.90
666;DHT22;315;48.738;9.126;2024-03-25T06:12:09;4.90;99.90
666;DHT22;315;48.738;9.126;2024-03-25T06:14:35;5.00;99.90
666;DHT22;315;48.738;9.126;2024-03-25T06:17:00;5.10;99.90
666;DHT22;315;48.738;9.126;2024-03-25T06:19:26;5.30;99.90
666;DHT22;315;48.738;9.126;2024-03-25T06:21:51;5.30;99.90
666;DHT22;315;48.738;9.126;2024-03-25T06:24:17;5.40;99.90
666;DHT22;315;48.738;9.126;2024-03-25T06:26:42;5.50;99.90
666;DHT22;315;48.738;9.126;2024-03-25T06:29:08;5.60;99.90
666;DHT22;315;48.738;9.126;2024-03-25T06:31:33;5.60;99.90
666;DHT22;315;48.738;9.126;2024-03-25T06:34:17;5.60;99.90
666;DHT22;315;48.738;9.126;2024-03-25T06:36:44;5.70;99.90
666;DHT22;315;48.738;9.126;2024-03-25T06:39:10;5.80;99.90
666;DHT22;315;48.738;9.126;2024-03-25T06:41:35;5.80;99.90
666;DHT22;315;48.738;9.126;2024-03-25T06:44:01;5.80;99.90
666;DHT22;315;48.738;9.126;2024-03-25T06:46:26;5.80;99.90
666;DHT22;315;48.738;9.126;2024-03-25T06:48:52;5.80;99.90
666;DHT22;315;48.738;9.126;2024-03-25T06:51:18;5.80;99.90
666;DHT22;315;48.738;9.126;2024-03-25T06:53:44;5.70;99.90
666;DHT22;315;48.738;9.126;2024-03-25T06:56:10;5.80;99.90
666;DHT22;315;48.738;9.126;2024-03-25T06:58:35;5.70;99.90
666;DHT22;315;48.738;9.126;2024-03-25T07:01:05;5.70;99.90
666;DHT22;315;48.738;9.126;2024-03-25T07:03:32;5.80;99.90
666;DHT22;315;48.738;9.126;2024-03-25T07:05:58;5.80;99.90
666;DHT22;315;48.738;9.126;2024-03-25T07:08:28;5.90;99.90
666;DHT22;315;48.738;9.126;2024-03-25T07:10:55;6.10;99.90
666;DHT22;315;48.738;9.126;2024-03-25T07:13:21;6.60;99.90
666;DHT22;315;48.738;9.126;2024-03-25T07:15:46;7.00;99.90
666;DHT22;315;48.738;9.126;2024-03-25T07:18:12;7.30;99.90
666;DHT22;315;48.738;9.126;2024-03-25T07:20:41;7.60;99.90
666;DHT22;315;48.738;9.126;2024-03-25T07:23:07;7.60;99.90
666;DHT22;315;48.738;9.126;2024-03-25T07:25:33;7.80;99.90
666;DHT22;315;48.738;9.126;2024-03-25T07:27:58;7.90;99.90
666;DHT22;315;48.738;9.126;2024-03-25T07:30:24;8.00;99.90
666;DHT22;315;48.738;9.126;2024-03-25T07:32:53;8.20;99.90
666;DHT22;315;48.738;9.126;2024-03-25T07:35:19;8.40;99.90
666;DHT22;315;48.738;9.126;2024-03-25T07:37:44;8.70;99.90
666;DHT22;315;48.738;9.126;2024-03-25T07:40:10;9.10;99.90
666;DHT22;315;48.738;9.126;2024-03-25T07:42:37;9.20;99.90
666;DHT22;315;48.738;9.126;2024-03-25T07:45:03;9.40;99.90
666;DHT22;315;48.738;9.126;2024-03-25T07:47:30;9.70;99.90
666;DHT22;315;48.738;9.126;2024-03-25T07:49:56;10.10;99.90
666;DHT22;315;48.738;9.126;2024-03-25T07:52:21;10.20;99.90
666;DHT22;315;48.738;9.126;2024-03-25T07:54:47;10.10;99.90
666;DHT22;315;48.738;9.126;2024-03-25T07:57:12;10.40;99.90
666;DHT22;315;48.738;9.126;2024-03-25T07:59:38;10.80;99.90
666;DHT22;315;48.738;9.126;2024-03-25T08:02:03;11.30;99.90
666;DHT22;315;48.738;9.126;2024-03-25T08:04:29;11.60;99.90
666;DHT22;315;48.738;9.126;2024-03-25T08:06:55;11.90;99.90
666;DHT22;315;48.738;9.126;2024-03-25T08:09:20;12.10;99.90
666;DHT22;315;48.738;9.126;2024-03-25T08:11:46;12.40;99.90
666;DHT22;315;48.738;9.126;2024-03-25T08:14:12;12.80;99.90
666;DHT22;315;48.738;9.126;2024-03-25T08:16:38;12.60;99.90
666;DHT22;315;48.738;9.126;2024-03-25T08:19:03;12.80;99.90
666;DHT22;315;48.738;9.126;2024-03-25T08:21:29;13.10;99.90
666;DHT22;315;48.738;9.126;2024-03-25T08:23:54;13.30;99.90
666;DHT22;315;48.738;9.126;2024-03-25T08:26:20;13.60;98.30
666;DHT22;315;48.738;9.126;2024-03-25T08:28:46;13.00;97.10
666;DHT22;315;48.738;9.126;2024-03-25T08:31:14;12.70;96.80
666;DHT22;315;48.738;9.126;2024-03-25T08:33:39;12.80;97.40
666;DHT22;315;48.738;9.126;2024-03-25T08:36:05;13.20;95.90
666;DHT22;315;48.738;9.126;2024-03-25T08:38:30;13.80;95.30
666;DHT22;315;48.738;9.126;2024-03-25T08:40:56;14.20;91.60
666;DHT22;315;48.738;9.126;2024-03-25T08:43:21;14.60;88.00
666;DHT22;315;48.738;9.126;2024-03-25T08:45:47;14.60;85.60
666;DHT22;315;48.738;9.126;2024-03-25T08:48:12;14.80;83.70
666;DHT22;315;48.738;9.126;2024-03-25T08:50:38;15.30;78.90
666;DHT22;315;48.738;9.126;2024-03-25T08:53:04;14.50;80.90
666;DHT22;315;48.738;9.126;2024-03-25T08:55:30;13.90;81.90
666;DHT22;315;48.738;9.126;2024-03-25T08:57:56;13.60;86.80
666;DHT22;315;48.738;9.126;2024-03-25T09:00:24;13.50;89.10
666;DHT22;315;48.738;9.126;2024-03-25T09:02:50;14.10;86.90
666;DHT22;315;48.738;9.126;2024-03-25T09:05:15;14.90;80.80
666;DHT22;315;48.738;9.126;2024-03-25T09:07:50;15.70;73.90
666;DHT22;315;48.738;9.126;2024-03-25T09:10:18;16.20;64.80
666;DHT22;315;48.738;9.126;2024-03-25T09:13:02;16.10;64.80
666;DHT22;315;48.738;9.126;2024-03-25T09:15:28;16.20;66.10
666;DHT22;315;48.738;9.126;2024-03-25T09:17:54;16.50;63.10
666;DHT22;315;48.738;9.126;2024-03-25T09:20:20;15.70;60.00
666;DHT22;315;48.738;9.126;2024-03-25T09:22:47;15.00;63.20
666;DHT22;315;48.738;9.126;2024-03-25T09:25:17;14.30;69.30
666;DHT22;315;48.738;9.126;2024-03-25T09:27:49;14.60;68.00
666;DHT22;315;48.738;9.126;2024-03-25T09:30:15;13.60;65.90
666;DHT22;315;48.738;9.126;2024-03-25T09:32:41;13.60;67.70
666;DHT22;315;48.738;9.126;2024-03-25T09:35:08;13.80;66.00
666;DHT22;315;48.738;9.126;2024-03-25T09:37:34;13.80;63.50
666;DHT22;315;48.738;9.126;2024-03-25T09:39:59;14.80;60.90
666;DHT22;315;48.738;9.126;2024-03-25T09:42:26;14.80;58.90
666;DHT22;315;48.738;9.126;2024-03-25T09:44:55;14.60;58.80
666;DHT22;315;48.738;9.126;2024-03-25T09:47:21;14.40;59.70
666;DHT22;315;48.738;9.126;2024-03-25T09:49:47;13.80;63.60
666;DHT22;315;48.738;9.126;2024-03-25T09:52:14;13.80;63.60
666;DHT22;315;48.738;9.126;2024-03-25T09:54:40;13.90;63.50
666;DHT22;315;48.738;9.126;2024-03-25T09:57:06;13.90;62.30
666;DHT22;315;48.738;9.126;2024-03-25T09:59:33;13.50;61.50
666;DHT22;315;48.738;9.126;2024-03-25T10:01:59;13.60;65.80
666;DHT22;315;48.738;9.126;2024-03-25T10:04:26;14.80;60.30
666;DHT22;315;48.738;9.126;2024-03-25T10:06:51;16.20;54.90
666;DHT22;315;48.738;9.126;2024-03-25T10:09:20;17.80;49.90
666;DHT22;315;48.738;9.126;2024-03-25T10:11:49;19.50;45.30
666;DHT22;315;48.738;9.126;2024-03-25T10:14:18;21.70;38.80
666;DHT22;315;48.738;9.126;2024-03-25T10:16:48;21.60;33.40
666;DHT22;315;48.738;9.126;2024-03-25T10:19:14;20.70;34.00
666;DHT22;315;48.738;9.126;2024-03-25T10:21:40;21.90;32.40
666;DHT22;315;48.738;9.126;2024-03-25T10:24:06;22.30;30.60
666;DHT22;315;48.738;9.126;2024-03-25T10:26:32;21.70;30.00
666;DHT22;315;48.738;9.126;2024-03-25T10:28:59;20.40;30.30
666;DHT22;315;48.738;9.126;2024-03-25T10:31:25;19.80;31.80
666;DHT22;315;48.738;9.126;2024-03-25T10:33:51;20.10;31.30
666;DHT22;315;48.738;9.126;2024-03-25T10:36:16;18.70;32.20
666;DHT22;315;48.738;9.126;2024-03-25T10:38:43;17.90;33.10
666;DHT22;315;48.738;9.126;2024-03-25T10:41:10;17.60;34.50
666;DHT22;315;48.738;9.126;2024-03-25T10:43:38;16.80;35.30
666;DHT22;315;48.738;9.126;2024-03-25T10:46:04;16.10;36.40
666;DHT22;315;48.738;9.126;2024-03-25T10:48:36;15.60;39.30
666;DHT22;315;48.738;9.126;2024-03-25T10:51:03;14.70;39.70
666;DHT22;315;48.738;9.126;2024-03-25T10:53:32;14.30;41.00
666;DHT22;315;48.738;9.126;2024-03-25T10:56:01;14.50;42.20
666;DHT22;315;48.738;9.126;2024-03-25T10:58:27;15.10;41.40
666;DHT22;315;48.738;9.126;2024-03-25T11:00:54;16.90;39.90
666;DHT22;315;48.738;9.126;2024-03-25T11:03:22;19.50;35.20
666;DHT22;315;48.738;9.126;2024-03-25T11:05:48;22.70;31.10
666;DHT22;315;48.738;9.126;2024-03-25T11:08:15;23.20;27.70
666;DHT22;315;48.738;9.126;2024-03-25T11:10:42;23.20;27.30
666;DHT22;315;48.738;9.126;2024-03-25T11:13:12;23.90;25.80
666;DHT22;315;48.738;9.126;2024-03-25T11:15:40;25.00;24.60
666;DHT22;315;48.738;9.126;2024-03-25T11:18:23;25.50;22.40
666;DHT22;315;48.738;9.126;2024-03-25T11:21:03;26.00;21.90
666;DHT22;315;48.738;9.126;2024-03-25T11:23:38;24.50;22.40
666;DHT22;315;48.738;9.126;2024-03-25T11:26:25;24.80;22.20
666;DHT22;315;48.738;9.126;2024-03-25T11:28:55;25.30;21.70
666;DHT22;315;48.738;9.126;2024-03-25T11:31:21;23.20;22.10
666;DHT22;315;48.738;9.126;2024-03-25T11:33:49;21.20;24.30
666;DHT22;315;48.738;9.126;2024-03-25T11:36:15;20.60;24.70
666;DHT22;315;48.738;9.126;2024-03-25T11:38:41;21.80;25.00
666;DHT22;315;48.738;9.126;2024-03-25T11:41:10;23.30;24.60
666;DHT22;315;48.738;9.126;2024-03-25T11:43:36;24.70;22.30
666;DHT22;315;48.738;9.126;2024-03-25T11:46:01;24.70;22.30
666;DHT22;315;48.738;9.126;2024-03-25T11:48:29;25.90;21.40
666;DHT22;315;48.738;9.126;2024-03-25T11:50:54;25.90;20.90
666;DHT22;315;48.738;9.126;2024-03-25T11:53:20;24.70;21.60
666;DHT22;315;48.738;9.126;2024-03-25T11:55:47;25.40;21.20
666;DHT22;315;48.738;9.126;2024-03-25T11:58:16;26.30;21.00
666;DHT22;315;48.738;9.126;2024-03-25T12:00:46;25.10;20.70
666;DHT22;315;48.738;9.126;2024-03-25T12:03:15;27.30;20.20
666;DHT22;315;48.738;9.126;2024-03-25T12:05:41;27.00;19.00
666;DHT22;315;48.738;9.126;2024-03-25T12:08:09;28.50;18.20
666;DHT22;315;48.738;9.126;2024-03-25T12:10:37;27.70;17.70
666;DHT22;315;48.738;9.126;2024-03-25T12:13:21;27.30;17.70
666;DHT22;315;48.738;9.126;2024-03-25T12:15:47;29.20;17.40
666;DHT22;315;48.738;9.126;2024-03-25T12:18:14;29.40;16.60
666;DHT22;315;48.738;9.126;2024-03-25T12:20:40;30.50;16.00
666;DHT22;315;48.738;9.126;2024-03-25T12:23:05;31.10;15.00
666;DHT22;315;48.738;9.126;2024-03-25T12:25:31;30.50;14.80
666;DHT22;315;48.738;9.126;2024-03-25T12:27:57;30.20;14.80
666;DHT22;315;48.738;9.126;2024-03-25T12:30:22;27.10;15.20
666;DHT22;315;48.738;9.126;2024-03-25T12:32:50;25.80;17.40
666;DHT22;315;48.738;9.126;2024-03-25T12:35:16;28.00;16.20
666;DHT22;315;48.738;9.126;2024-03-25T12:37:47;29.60;15.20
666;DHT22;315;48.738;9.126;2024-03-25T12:40:25;30.30;14.30
666;DHT22;315;48.738;9.126;2024-03-25T12:42:54;30.50;14.20
666;DHT22;315;48.738;9.126;2024-03-25T12:45:21;30.70;14.00
666;DHT22;315;48.738;9.126;2024-03-25T12:47:47;29.70;13.70
666;DHT22;315;48.738;9.126;2024-03-25T12:50:13;29.20;14.00
666;DHT22;315;48.738;9.126;2024-03-25T12:52:38;27.80;14.40
666;DHT22;315;48.738;9.126;2024-03-25T12:55:04;28.30;14.50
666;DHT22;315;48.738;9.126;2024-03-25T12:57:30;28.40;14.60
666;DHT22;315;48.738;9.126;2024-03-25T12:59:55;27.50;14.00
666;DHT22;315;48.738;9.126;2024-03-25T13:02:21;25.20;15.60
666;DHT22;315;48.738;9.126;2024-03-25T13:04:46;25.40;15.40
666;DHT22;315;48.738;9.126;2024-03-25T13:07:12;26.90;13.90
666;DHT22;315;48.738;9.126;2024-03-25T13:09:38;26.10;13.70
666;DHT22;315;48.738;9.126;2024-03-25T13:12:04;23.80;13.80
666;DHT22;315;48.738;9.126;2024-03-25T13:14:30;24.20;14.50
666;DHT22;315;48.738;9.126;2024-03-25T13:16:55;26.70;13.40
666;DHT22;315;48.738;9.126;2024-03-25T13:19:21;25.00;14.00
666;DHT22;315;48.738;9.126;2024-03-25T13:21:47;25.60;14.40
666;DHT22;315;48.738;9.126;2024-03-25T13:24:13;25.40;14.40
666;DHT22;315;48.738;9.126;2024-03-25T13:26:39;25.20;15.50
666;DHT22;315;48.738;9.126;2024-03-25T13:29:05;26.70;14.50
666;DHT22;315;48.738;9.126;2024-03-25T13:31:30;27.70;13.70
666;DHT22;315;48.738;9.126;2024-03-25T13:33:56;26.70;14.00
666;DHT22;315;48.738;9.126;2024-03-25T13:36:21;26.80;14.20
666;DHT22;315;48.738;9.126;2024-03-25T13:38:47;27.90;13.40
666;DHT22;315;48.738;9.126;2024-03-25T13:41:12;27.60;13.80
666;DHT22;315;48.738;9.126;2024-03-25T13:43:44;27.90;13.20
666;DHT22;315;48.738;9.126;2024-03-25T13:46:09;29.30;12.90
666;DHT22;315;48.738;9.126;2024-03-25T13:48:37;27.80;12.60
666;DHT22;315;48.738;9.126;2024-03-25T13:51:03;27.50;13.40
666;DHT22;315;48.738;9.126;2024-03-25T13:53:28;25.50;12.70
666;DHT22;315;48.738;9.126;2024-03-25T13:55:54;21.80;16.00
666;DHT22;315;48.738;9.126;2024-03-25T13:58:20;21.10;17.90
666;DHT22;315;48.738;9.126;2024-03-25T14:00:45;20.50;18.70
666;DHT22;315;48.738;9.126;2024-03-25T14:03:11;20.30;18.80
666;DHT22;315;48.738;9.126;2024-03-25T14:05:36;19.30;20.00
666;DHT22;315;48.738;9.126;2024-03-25T14:08:02;18.20;20.70
666;DHT22;315;48.738;9.126;2024-03-25T14:10:27;16.90;22.00
666;DHT22;315;48.738;9.126;2024-03-25T14:12:53;15.80;23.20
666;DHT22;315;48.738;9.126;2024-03-25T14:15:18;15.00;24.40
666;DHT22;315;48.738;9.126;2024-03-25T14:17:44;15.00;25.10
666;DHT22;315;48.738;9.126;2024-03-25T14:20:10;14.90;25.00
666;DHT22;315;48.738;9.126;2024-03-25T14:22:36;14.70;25.40
666;DHT22;315;48.738;9.126;2024-03-25T14:25:01;14.60;25.30
666;DHT22;315;48.738;9.126;2024-03-25T14:27:27;14.10;25.80
666;DHT22;315;48.738;9.126;2024-03-25T14:29:52;14.10;26.20
666;DHT22;315;48.738;9.126;2024-03-25T14:32:22;14.20;25.60
666;DHT22;315;48.738;9.126;2024-03-25T14:34:48;14.30;26.20
666;DHT22;315;48.738;9.126;2024-03-25T14:37:14;14.00;26.40
666;DHT22;315;48.738;9.126;2024-03-25T14:39:40;13.70;27.20
666;DHT22;315;48.738;9.126;2024-03-25T14:42:08;13.60;26.90
666;DHT22;315;48.738;9.126;2024-03-25T14:44:35;13.50;27.30
666;DHT22;315;48.738;9.126;2024-03-25T14:47:00;13.70;28.00
666;DHT22;315;48.738;9.126;2024-03-25T14:49:25;13.80;27.70
666;DHT22;315;48.738;9.126;2024-03-25T14:51:51;13.70;27.90
666;DHT22;315;48.738;9.126;2024-03-25T14:54:20;13.70;28.40
666;DHT22;315;48.738;9.126;2024-03-25T14:56:49;13.50;28.30
666;DHT22;315;48.738;9.126;2024-03-25T14:59:15;13.30;28.60
666;DHT22;315;48.738;9.126;2024-03-25T15:01:41;13.30;29.50
666;DHT22;315;48.738;9.126;2024-03-25T15:04:06;13.20;29.00
666;DHT22;315;48.738;9.126;2024-03-25T15:06:33;13.30;29.00
666;DHT22;315;48.738;9.126;2024-03-25T15:08:59;12.90;28.90
666;DHT22;315;48.738;9.126;2024-03-25T15:11:25;12.90;29.50
666;DHT22;315;48.738;9.126;2024-03-25T15:13:51;13.00;29.40
666;DHT22;315;48.738;9.126;2024-03-25T15:16:17;13.00;29.50
666;DHT22;315;48.738;9.126;2024-03-25T15:18:43;12.80;29.80
666;DHT22;315;48.738;9.126;2024-03-25T15:21:08;12.90;30.00
666;DHT22;315;48.738;9.126;2024-03-25T15:23:34;12.90;29.90
666;DHT22;315;48.738;9.126;2024-03-25T15:26:00;12.70;29.50
666;DHT22;315;48.738;9.126;2024-03-25T15:28:25;12.80;29.30
666;DHT22;315;48.738;9.126;2024-03-25T15:30:54;12.80;29.30
666;DHT22;315;48.738;9.126;2024-03-25T15:33:20;12.70;29.70
666;DHT22;315;48.738;9.126;2024-03-25T15:35:45;12.70;30.00
666;DHT22;315;48.738;9.126;2024-03-25T15:38:11;12.60;29.80
666;DHT22;315;48.738;9.126;2024-03-25T15:40:36;12.50;30.30
666;DHT22;315;48.738;9.126;2024-03-25T15:43:02;12.50;30.40
666;DHT22;315;48.738;9.126;2024-03-25T15:45:28;12.40;30.70
666;DHT22;315;48.738;9.126;2024-03-25T15:47:56;12.30;30.30
666;DHT22;315;48.738;9.126;2024-03-25T15:50:22;12.20;30.50
666;DHT22;315;48.738;9.126;2024-03-25T15:52:48;12.20;31.10
666;DHT22;315;48.738;9.126;2024-03-25T15:55:14;12.10;31.30
666;DHT22;315;48.738;9.126;2024-03-25T15:57:40;12.10;31.70
666;DHT22;315;48.738;9.126;2024-03-25T16:00:06;12.10;32.20
666;DHT22;315;48.738;9.126;2024-03-25T16:02:33;12.10;32.40
666;DHT22;315;48.738;9.126;2024-03-25T16:04:59;12.10;32.20
666;DHT22;315;48.738;9.126;2024-03-25T16:07:24;12.10;31.80
666;DHT22;315;48.738;9.126;2024-03-25T16:09:50;12.10;31.20
666;DHT22;315;48.738;9.126;2024-03-25T16:12:15;12.00;31.30
666;DHT22;315;48.738;9.126;2024-03-25T16:14:41;11.80;30.90
666;DHT22;315;48.738;9.126;2024-03-25T16:17:10;11.70;31.10
666;DHT22;315;48.738;9.126;2024-03-25T16:19:35;11.70;31.90
666;DHT22;315;48.738;9.126;2024-03-25T16:22:01;11.60;30.50
666;DHT22;315;48.738;9.126;2024-03-25T16:24:26;11.60;31.10
666;DHT22;315;48.738;9.126;2024-03-25T16:26:52;11.60;30.60
666;DHT22;315;48.738;9.126;2024-03-25T16:29:17;11.50;30.20
666;DHT22;315;48.738;9.126;2024-03-25T16:31:43;11.50;30.60
666;DHT22;315;48.738;9.126;2024-03-25T16:34:09;11.50;30.50
666;DHT22;315;48.738;9.126;2024-03-25T16:36:34;11.50;30.50